首页
METAR-TAF:

METAR-TAF

机场 :

Greenville Downtown Airport

格林维尔, 南卡罗来纳州, 美国

纬度: 34-50-46N, 经度: 082-20-46W, 海拔: 319米

当前天气观测

该预报发布于1小时和5分钟前的00:53 UTC
风速5节,风向东转东北
温度 4°C
湿度 28%
气压 1034 hPa
能見度: 16.1公里
阴天层高于3200英尺

METAR: KGMU 230053Z 06005KT 10SM OVC032 04/M13 A3053 RMK AO2 SLP347 T00441128

时间: 20:58 (01:58 UTC)

预报

该预报发布于2小时和23分钟前的23:35 UTC
预报有效从23日的 00点(UTC)到 23日的 24点(UTC)
风速7节,风向
能見度: 10公里
多云层高于3000英尺
从 23日的 0600点(UTC)
风速6节,风向东转东北
能見度: 10公里
阴天层高于2300英尺
附近有阵雨
从 23日的 0900点(UTC)
风速7节,风向东北
能見度: 10公里
阴天层高于1200英尺
几率 30%
从 23日的 09点(UTC)到 23日的 11点(UTC)
能見度: 6.4公里
阴天层高于800英尺
(小) 冻, 雨
从 23日的 1100点(UTC)
风速6节,风向东北
能見度: 10公里
阴天层高于800英尺
小雨
从 23日的 1400点(UTC)
风速5节,风向东转东北
能見度: 4.8公里
阴天层高于500英尺
小雨, 轻雾
从 23日的 1900点(UTC)
风速4节,风向
能見度: 9.7公里
阴天层高于1500英尺
小雨, 轻雾

TAF: KGMU 222335Z 2300/2324 08007KT P6SM BKN030 FM230600 06006KT P6SM VCSH OVC023 FM230900 04007KT P6SM OVC012 PROB30 2309/2311 4SM -FZRA OVC008 FM231100 05006KT P6SM -RA OVC008 FM231400 06005KT 3SM -RA BR OVC005 FM231900 08004KT 6SM -RA BR OVC015

超过4000个机场的气象观测和天气预报(METAR&TAF报告)。

可查询的气象台以黄色和红色小点在地图上表示。

将鼠标移到小点上方,可查看气象台名称。

然后点击查看天气观测和预报。

如需切换地图:点击带黑十字的绿色按钮放大地图;点击带横线的绿色按钮缩小地图;或者点击绿色箭头查看邻近地区的地图。


METAR-TAF: